Time;durP1;ratioP1;P1;durP2;ratioP2;P2;SDS_P1;SDS_P2;PMS_P1;PMS_P2;Temp;Humidity;BMP_temperature;BMP_pressure;BME280_temperature;BME280_humidity;BME280_pressure;Samples;Min_cycle;Max_cycle;Signal;HPM_P1;HPM_P2
2021/12/20 00:01:12;;;;;;;7.00;3.80;;;;;;;5.78;92.59;102286.66;5092921;28;20207;-74
2021/12/20 00:03:38;;;;;;;10.37;4.17;;;;;;;5.82;91.84;102297.97;5093414;28;20194;-74
2021/12/20 00:06:05;;;;;;;10.60;3.77;;;;;;;5.80;91.03;102283.22;5095518;28;20186;-74
2021/12/20 00:08:32;;;;;;;14.10;3.83;;;;;;;5.76;90.15;102286.66;5096705;28;20186;-74
2021/12/20 00:10:58;;;;;;;7.13;3.33;;;;;;;5.75;89.78;102277.13;5096711;28;20232;-74
2021/12/20 00:13:25;;;;;;;4.87;2.70;;;;;;;5.73;89.63;102281.47;5096665;28;20186;-74
2021/12/20 00:15:51;;;;;;;11.27;4.87;;;;;;;5.75;89.00;102274.53;5096794;28;20611;-74
2021/12/20 00:18:18;;;;;;;5.23;3.23;;;;;;;5.76;87.52;102265.88;5096575;28;20235;-74
2021/12/20 00:20:44;;;;;;;16.43;4.73;;;;;;;5.83;87.22;102265.91;5096730;28;20194;-74
2021/12/20 00:23:11;;;;;;;7.20;3.97;;;;;;;5.74;86.23;102265.00;5096684;28;20633;-75
2021/12/20 00:25:37;;;;;;;10.97;4.03;;;;;;;5.73;85.40;102267.63;5096329;28;20239;-74
2021/12/20 00:28:04;;;;;;;13.03;3.60;;;;;;;5.67;85.29;102271.06;5096293;28;20182;-74
2021/12/20 00:30:32;;;;;;;17.73;3.50;;;;;;;5.66;85.42;102271.06;5096287;28;20663;-74
2021/12/20 00:32:59;;;;;;;8.30;4.00;;;;;;;5.68;85.08;102265.00;5096813;28;20182;-74
2021/12/20 00:35:26;;;;;;;3.00;2.80;;;;;;;5.75;84.23;102266.75;5094885;28;20567;-74
2021/12/20 00:40:38;;;;;;;9.43;3.80;;;;;;;5.82;84.51;102266.78;5096085;28;20198;-74
2021/12/20 00:43:04;;;;;;;6.70;2.97;;;;;;;5.76;85.01;102255.47;5096040;28;20186;-74
2021/12/20 00:45:36;;;;;;;7.83;3.47;;;;;;;5.75;85.36;102261.56;5095948;28;20219;-74
2021/12/20 00:48:04;;;;;;;7.80;3.37;;;;;;;5.81;85.44;102255.50;5096597;28;20236;-74
2021/12/20 00:50:36;;;;;;;5.60;3.10;;;;;;;5.77;85.39;102254.63;5096275;28;20616;-74
2021/12/20 00:53:03;;;;;;;12.50;3.73;;;;;;;5.68;85.56;102262.38;5095946;28;20212;-74
2021/12/20 00:55:29;;;;;;;9.50;2.33;;;;;;;5.67;85.41;102258.06;5096795;28;20267;-74
2021/12/20 00:57:58;;;;;;;5.77;3.63;;;;;;;5.70;84.53;102265.00;5096110;28;20220;-74
2021/12/20 01:00:29;;;;;;;7.33;3.03;;;;;;;5.65;82.71;102256.34;5095709;28;20254;-74
2021/12/20 01:02:57;;;;;;;6.90;3.10;;;;;;;5.68;80.34;102264.13;5096067;28;20219;-74
2021/12/20 01:05:26;;;;;;;3.07;2.60;;;;;;;5.66;78.97;102269.31;5095683;28;20288;-74
2021/12/20 01:07:56;;;;;;;5.83;3.07;;;;;;;5.60;79.75;102268.44;5095912;28;20186;-74
2021/12/20 01:10:24;;;;;;;5.50;2.97;;;;;;;5.59;80.46;102267.56;5096188;28;20200;-74
2021/12/20 01:12:53;;;;;;;10.30;3.03;;;;;;;5.59;81.22;102266.69;5095789;28;20589;-74
2021/12/20 01:15:24;;;;;;;3.80;2.90;;;;;;;5.56;81.50;102264.06;5095668;28;20247;-74
2021/12/20 01:17:52;;;;;;;4.30;2.80;;;;;;;5.58;82.15;102267.56;5095692;28;20650;-74
2021/12/20 01:20:19;;;;;;;3.13;2.77;;;;;;;5.53;82.61;102267.53;5095774;28;20636;-74
2021/12/20 01:22:47;;;;;;;6.23;2.77;;;;;;;5.61;82.36;102270.16;5095310;28;20239;-74
2021/12/20 01:25:15;;;;;;;9.47;3.83;;;;;;;5.61;82.66;102275.34;5095191;28;20251;-74
2021/12/20 01:27:41;;;;;;;14.73;3.83;;;;;;;5.66;82.43;102266.72;5095116;28;20720;-74
2021/12/20 01:30:11;;;;;;;10.83;3.43;;;;;;;5.64;82.91;102265.81;5095699;28;20219;-74
2021/12/20 01:32:38;;;;;;;6.37;3.47;;;;;;;5.58;83.49;102276.22;5095130;28;20182;-74
2021/12/20 01:35:06;;;;;;;6.77;2.83;;;;;;;5.53;83.90;102270.13;5095017;28;20205;-74
2021/12/20 01:37:32;;;;;;;7.77;3.60;;;;;;;5.60;84.25;102269.28;5093824;28;20178;-74
2021/12/20 01:39:59;;;;;;;9.73;3.20;;;;;;;5.61;84.63;102271.03;5095000;28;20606;-74
2021/12/20 01:42:30;;;;;;;5.03;3.43;;;;;;;5.61;84.51;102268.44;5094859;28;20214;-74
2021/12/20 01:44:58;;;;;;;8.27;3.57;;;;;;;5.55;84.92;102263.19;5095108;28;20740;-74
2021/12/20 01:47:32;;;;;;;7.33;3.30;;;;;;;5.52;85.45;102261.47;5095351;28;20190;-74
2021/12/20 01:50:05;;;;;;;9.20;3.17;;;;;;;5.63;84.99;102263.22;5093572;28;20230;-74
2021/12/20 01:52:40;;;;;;;15.00;3.60;;;;;;;5.48;86.38;102261.44;5095018;28;20196;-74
2021/12/20 01:55:10;;;;;;;4.63;3.00;;;;;;;5.43;86.68;102276.13;5094761;28;20198;-74
2021/12/20 01:57:37;;;;;;;6.97;3.50;;;;;;;5.42;86.83;102279.59;5094897;28;20573;-74
2021/12/20 02:00:10;;;;;;;7.50;2.93;;;;;;;5.47;87.18;102278.75;5095075;28;20647;-74
2021/12/20 02:02:47;;;;;;;4.37;2.43;;;;;;;5.43;87.57;102271.81;5094557;28;20608;-74
2021/12/20 02:05:29;;;;;;;11.37;3.40;;;;;;;5.42;87.89;102270.06;5094415;28;20690;-74
2021/12/20 02:08:13;;;;;;;9.40;3.57;;;;;;;5.56;87.20;102264.94;5095042;28;20178;-74
2021/12/20 02:10:43;;;;;;;15.53;3.60;;;;;;;5.55;87.08;102265.78;5094407;28;20227;-74
2021/12/20 02:13:12;;;;;;;5.37;2.97;;;;;;;5.53;86.84;102275.31;5094383;28;20247;-74
2021/12/20 02:15:38;;;;;;;21.93;3.50;;;;;;;5.55;86.98;102271.00;5093059;28;20270;-74
2021/12/20 02:18:05;;;;;;;7.50;3.43;;;;;;;5.56;86.91;102274.47;5094769;28;20190;-74
2021/12/20 02:20:33;;;;;;;5.77;3.67;;;;;;;5.47;87.32;102270.97;5094174;28;20194;-74
2021/12/20 02:23:00;;;;;;;6.47;3.43;;;;;;;5.55;87.02;102272.72;5094702;28;20186;-74
2021/12/20 02:25:28;;;;;;;4.67;2.50;;;;;;;5.52;86.92;102271.00;5094096;28;20213;-74
2021/12/20 02:27:56;;;;;;;10.90;3.43;;;;;;;5.59;86.59;102269.28;5093815;28;20215;-74
2021/12/20 02:38:30;;;;;;;10.33;2.90;;;;;;;5.48;86.44;102256.25;5094211;28;20626;-74
2021/12/20 02:41:04;;;;;;;11.13;3.43;;;;;;;5.50;86.16;102259.69;5094088;28;20202;-74
2021/12/20 02:43:35;;;;;;;5.57;2.57;;;;;;;5.41;86.29;102259.66;5093881;28;20177;-74
2021/12/20 02:46:04;;;;;;;8.97;3.17;;;;;;;5.45;85.56;102256.25;5093837;28;20182;-74
2021/12/20 02:48:31;;;;;;;3.10;2.90;;;;;;;5.42;85.53;102259.66;5093747;28;20601;-74
2021/12/20 02:50:57;;;;;;;10.93;3.50;;;;;;;5.47;84.69;102255.38;5094572;28;20182;-74
2021/12/20 02:53:24;;;;;;;12.37;3.27;;;;;;;5.44;84.31;102252.78;5094268;28;20194;-74
2021/12/20 02:55:50;;;;;;;11.20;2.80;;;;;;;5.44;84.36;102255.38;5093615;28;20214;-74
2021/12/20 02:58:17;;;;;;;4.10;2.40;;;;;;;5.44;84.06;102251.91;5093631;28;20191;-74
2021/12/20 03:00:43;;;;;;;7.23;2.73;;;;;;;5.41;84.19;102257.06;5093693;28;20193;-74
2021/12/20 03:03:10;;;;;;;5.10;2.67;;;;;;;5.44;83.99;102251.91;5093882;28;20708;-74
2021/12/20 03:05:37;;;;;;;11.30;2.37;;;;;;;5.45;83.37;102253.63;5093463;28;20248;-74
2021/12/20 03:08:04;;;;;;;2.93;2.60;;;;;;;5.44;83.53;102257.09;5092696;28;20233;-74
2021/12/20 03:10:31;;;;;;;9.80;2.73;;;;;;;5.45;83.45;102264.03;5093772;28;20190;-74
2021/12/20 03:12:58;;;;;;;8.93;3.20;;;;;;;5.44;83.35;102254.50;5094010;28;20231;-74
2021/12/20 03:15:26;;;;;;;5.70;2.67;;;;;;;5.44;83.54;102257.09;5093378;28;20575;-74
2021/12/20 03:17:57;;;;;;;7.03;3.07;;;;;;;5.40;83.83;102255.34;5093386;28;20243;-74
2021/12/20 03:20:23;;;;;;;8.07;3.27;;;;;;;5.37;84.16;102256.22;5093720;28;20531;-74
2021/12/20 03:22:50;;;;;;;5.87;3.03;;;;;;;5.39;83.98;102254.47;5093832;28;20258;-74
2021/12/20 03:25:17;;;;;;;7.00;2.73;;;;;;;5.39;83.85;102253.59;5093305;28;20292;-73
2021/12/20 03:27:44;;;;;;;7.30;3.33;;;;;;;5.36;83.96;102249.28;5093381;28;20193;-73
2021/12/20 03:30:12;;;;;;;8.00;2.47;;;;;;;5.37;83.97;102253.59;5093288;28;20275;-73
2021/12/20 03:32:39;;;;;;;9.33;3.27;;;;;;;5.33;84.17;102251.84;5093253;28;20193;-73
2021/12/20 03:35:07;;;;;;;2.57;2.43;;;;;;;5.33;84.32;102253.56;5093543;28;20205;-73
2021/12/20 03:37:39;;;;;;;6.87;2.90;;;;;;;5.35;84.28;102254.44;5093286;28;20185;-73
2021/12/20 03:40:06;;;;;;;9.50;3.23;;;;;;;5.33;84.10;102261.38;5094565;28;20224;-73
2021/12/20 03:42:33;;;;;;;8.50;3.53;;;;;;;5.34;84.24;102268.28;5097764;28;20205;-73
2021/12/20 03:44:59;;;;;;;6.80;2.47;;;;;;;5.31;84.55;102268.28;5097333;28;20205;-73
2021/12/20 03:47:26;;;;;;;10.87;2.87;;;;;;;5.29;84.58;102264.78;5097177;28;20190;-73
2021/12/20 03:49:52;;;;;;;11.47;3.27;;;;;;;5.28;84.82;102270.84;5097684;28;20186;-73
2021/12/20 03:52:19;;;;;;;8.03;3.37;;;;;;;5.24;84.95;102263.06;5097060;28;20231;-73
2021/12/20 03:54:45;;;;;;;6.80;2.77;;;;;;;5.24;85.15;102255.25;5097253;28;20251;-73
2021/12/20 03:57:12;;;;;;;8.57;3.37;;;;;;;5.22;85.14;102259.59;5097517;28;20190;-73
2021/12/20 03:59:38;;;;;;;3.37;3.00;;;;;;;5.29;84.94;102257.91;5096953;28;20245;-73
2021/12/20 04:02:06;;;;;;;3.80;3.00;;;;;;;5.28;85.10;102257.88;5097648;28;20210;-73
2021/12/20 04:04:33;;;;;;;6.70;3.03;;;;;;;5.25;85.13;102257.00;5097292;28;20272;-73
2021/12/20 04:06:59;;;;;;;12.13;3.87;;;;;;;5.24;85.33;102265.66;5096724;28;20243;-73
2021/12/20 04:09:26;;;;;;;9.47;3.23;;;;;;;5.25;85.44;102267.38;5097250;28;20190;-73
2021/12/20 04:11:52;;;;;;;9.07;2.57;;;;;;;5.25;85.46;102269.97;5096196;28;20186;-73
2021/12/20 04:14:18;;;;;;;3.83;2.60;;;;;;;5.20;85.63;102269.06;5096912;28;20210;-73
2021/12/20 04:16:45;;;;;;;5.17;2.70;;;;;;;5.20;85.79;102271.66;5096582;28;20182;-73
2021/12/20 04:19:11;;;;;;;7.53;2.77;;;;;;;5.21;85.87;102268.25;5095366;28;20178;-73
2021/12/20 04:21:38;;;;;;;7.13;3.20;;;;;;;5.21;85.75;102260.44;5096435;28;20215;-74
2021/12/20 04:24:04;;;;;;;10.60;3.57;;;;;;;5.21;85.86;102268.25;5095680;28;20213;-74
2021/12/20 04:26:31;;;;;;;6.83;2.97;;;;;;;5.22;85.57;102263.91;5096562;28;20207;-74
2021/12/20 04:28:58;;;;;;;11.03;3.87;;;;;;;5.19;85.79;102263.88;5096258;28;20178;-74
2021/12/20 04:31:25;;;;;;;3.80;2.93;;;;;;;5.22;85.74;102264.78;5096814;28;20174;-74
2021/12/20 04:33:51;;;;;;;10.30;3.30;;;;;;;5.34;85.49;102261.38;5096537;28;20244;-74
2021/12/20 04:36:18;;;;;;;7.13;3.50;;;;;;;5.25;85.20;102267.38;5096241;28;20190;-74
2021/12/20 04:38:45;;;;;;;6.23;3.33;;;;;;;5.26;85.20;102268.25;5096147;28;20651;-74
2021/12/20 04:41:11;;;;;;;10.80;3.23;;;;;;;5.23;85.45;102269.09;5096081;28;20197;-74
2021/12/20 04:43:38;;;;;;;4.17;2.73;;;;;;;5.18;85.55;102270.81;5096862;28;20600;-74
2021/12/20 04:46:05;;;;;;;8.87;3.37;;;;;;;5.16;85.66;102269.06;5096089;28;20209;-74
2021/12/20 04:48:31;;;;;;;11.83;2.90;;;;;;;5.26;85.09;102268.25;5096526;28;20201;-74
2021/12/20 04:50:58;;;;;;;7.93;3.30;;;;;;;5.24;85.24;102277.78;5095599;28;20185;-74
2021/12/20 04:53:24;;;;;;;7.27;3.67;;;;;;;5.25;85.13;102277.78;5095876;28;20243;-74
2021/12/20 04:55:51;;;;;;;3.87;3.50;;;;;;;5.25;85.31;102277.78;5094535;28;20213;-74
2021/12/20 04:58:17;;;;;;;9.07;3.43;;;;;;;5.24;85.40;102276.03;5096075;28;20243;-74
2021/12/20 05:00:44;;;;;;;3.00;2.80;;;;;;;5.25;85.10;102272.56;5096032;28;20186;-74
2021/12/20 05:03:11;;;;;;;7.70;3.47;;;;;;;5.37;84.26;102276.13;5095636;28;20309;-74
2021/12/20 05:05:38;;;;;;;11.00;4.10;;;;;;;5.23;84.81;102276.91;5095613;28;20218;-74
2021/12/20 05:08:05;;;;;;;10.53;4.43;;;;;;;5.27;84.80;102284.69;5095603;28;20194;-74
2021/12/20 05:10:34;;;;;;;10.00;4.03;;;;;;;5.27;84.92;102282.09;5095546;28;20204;-74
2021/12/20 05:13:03;;;;;;;8.13;3.53;;;;;;;5.35;84.80;102280.41;5095519;28;20192;-74
2021/12/20 05:15:30;;;;;;;8.37;2.97;;;;;;;5.33;84.67;102279.53;5095358;28;20691;-74
2021/12/20 05:17:57;;;;;;;12.17;3.93;;;;;;;5.32;84.38;102270.88;5094199;28;20539;-74
2021/12/20 05:20:25;;;;;;;9.80;3.50;;;;;;;5.24;84.75;102283.81;5095481;28;20189;-75
2021/12/20 05:22:52;;;;;;;10.60;3.13;;;;;;;5.23;84.51;102282.09;5095167;28;20882;-74
2021/12/20 05:25:18;;;;;;;5.13;3.40;;;;;;;5.25;84.42;102285.56;5095219;28;20209;-74
2021/12/20 05:27:45;;;;;;;10.77;3.70;;;;;;;5.23;84.72;102278.63;5095346;28;20242;-74
2021/12/20 05:30:14;;;;;;;3.27;2.97;;;;;;;5.20;84.72;102273.41;5095472;28;20208;-74
2021/12/20 05:32:40;;;;;;;10.93;3.30;;;;;;;5.18;84.94;102273.41;5095139;28;20181;-74
2021/12/20 05:35:08;;;;;;;11.43;3.27;;;;;;;5.18;84.42;102288.09;5095028;28;20259;-74
2021/12/20 05:37:35;;;;;;;11.23;4.13;;;;;;;5.10;84.54;102290.66;5095058;28;20215;-74
2021/12/20 05:40:08;;;;;;;7.43;3.70;;;;;;;5.07;84.86;102284.56;5093724;28;20272;-74
2021/12/20 05:42:34;;;;;;;7.10;3.77;;;;;;;5.11;84.46;102287.19;5095139;28;20694;-74
2021/12/20 05:45:01;;;;;;;16.90;4.00;;;;;;;5.14;84.14;102292.44;5094828;28;20256;-74
2021/12/20 05:47:28;;;;;;;6.33;3.53;;;;;;;5.12;83.65;102299.31;5093786;28;20198;-74
2021/12/20 05:49:54;;;;;;;6.77;3.30;;;;;;;4.98;83.75;102299.22;5095035;28;20185;-74
2021/12/20 05:52:21;;;;;;;14.23;3.50;;;;;;;4.90;84.01;102303.50;5095030;28;20178;-74
2021/12/20 05:54:47;;;;;;;13.77;4.30;;;;;;;4.86;84.30;102304.34;5094600;28;20691;-74
2021/12/20 05:57:14;;;;;;;12.47;3.30;;;;;;;4.74;84.81;102304.22;5094861;28;20554;-74
2021/12/20 05:59:40;;;;;;;6.87;3.30;;;;;;;4.64;84.72;102303.28;5094606;28;20182;-74
2021/12/20 06:02:07;;;;;;;9.93;3.70;;;;;;;4.70;84.85;102303.31;5094638;28;20252;-74
2021/12/20 06:04:34;;;;;;;13.93;4.37;;;;;;;4.59;85.33;102299.78;5094473;28;20608;-74
2021/12/20 06:07:00;;;;;;;6.30;3.60;;;;;;;4.60;85.33;102304.13;5094546;28;20651;-74
2021/12/20 06:09:28;;;;;;;9.60;3.60;;;;;;;4.42;85.73;102306.53;5094681;28;20182;-74
2021/12/20 06:11:59;;;;;;;4.83;3.37;;;;;;;4.32;86.23;102305.56;5094675;28;20190;-74
2021/12/20 06:14:28;;;;;;;12.67;3.30;;;;;;;4.33;86.16;102301.25;5094331;28;20619;-74
2021/12/20 06:16:57;;;;;;;21.27;4.63;;;;;;;4.34;85.87;102303.84;5094246;28;20651;-74
2021/12/20 06:19:24;;;;;;;15.03;4.23;;;;;;;4.18;86.04;102311.47;5094778;28;20193;-74
2021/12/20 06:21:51;;;;;;;13.73;4.37;;;;;;;4.05;86.29;102316.50;5094123;28;20659;-74
2021/12/20 06:24:18;;;;;;;16.60;4.10;;;;;;;3.95;87.06;102313.81;5094588;28;20292;-74
2021/12/20 06:26:45;;;;;;;11.23;3.87;;;;;;;3.87;87.14;102316.31;5094093;28;20583;-74
2021/12/20 06:29:11;;;;;;;12.03;3.67;;;;;;;3.88;87.47;102325.81;5094037;28;20185;-75
2021/12/20 06:31:38;;;;;;;9.17;3.20;;;;;;;3.81;87.82;102324.00;5093025;28;20189;-75
2021/12/20 06:34:04;;;;;;;13.30;3.63;;;;;;;3.74;87.70;102333.41;5093907;28;20555;-75
2021/12/20 06:36:31;;;;;;;8.10;3.63;;;;;;;3.75;87.72;102331.69;5093788;28;20196;-74
2021/12/20 06:38:58;;;;;;;9.63;4.00;;;;;;;3.64;88.08;102331.53;5094122;28;20226;-74
2021/12/20 06:41:25;;;;;;;18.23;4.60;;;;;;;3.51;88.26;102333.13;5093913;28;20189;-74
2021/12/20 06:43:52;;;;;;;8.47;3.67;;;;;;;3.38;89.15;102345.88;5093869;28;20247;-74
2021/12/20 06:46:21;;;;;;;13.23;3.93;;;;;;;3.37;nan;102345.00;5093756;28;20194;-73
2021/12/20 06:48:48;;;;;;;11.60;4.07;;;;;;;3.20;89.22;102351.63;5093778;28;20239;-75
2021/12/20 06:51:14;;;;;;;9.53;3.83;;;;;;;3.17;89.15;102354.19;5094181;28;20585;-75
2021/12/20 06:53:41;;;;;;;14.17;4.03;;;;;;;3.19;89.08;102350.75;5093601;28;20207;-74
2021/12/20 06:56:08;;;;;;;10.17;3.57;;;;;;;3.17;89.27;102351.59;5093660;28;20233;-74
2021/12/20 06:58:34;;;;;;;11.67;4.10;;;;;;;3.13;89.41;102349.78;5093598;28;20238;-74
2021/12/20 07:01:02;;;;;;;7.90;4.00;;;;;;;3.03;89.58;102351.38;5093883;28;20512;-74
2021/12/20 07:03:29;;;;;;;11.77;3.83;;;;;;;2.98;89.70;102360.75;5093384;28;20269;-74
2021/12/20 07:05:55;;;;;;;4.23;3.97;;;;;;;2.96;90.03;102350.41;5093322;28;20697;-74
2021/12/20 07:08:22;;;;;;;9.20;4.33;;;;;;;2.88;90.09;102348.53;5093485;28;20223;-74
2021/12/20 07:10:49;;;;;;;8.53;4.30;;;;;;;2.91;90.55;102351.16;5093767;28;20654;-75
2021/12/20 07:13:15;;;;;;;10.83;4.37;;;;;;;2.84;90.53;102347.59;5093742;28;20174;-75
2021/12/20 07:15:42;;;;;;;10.90;4.30;;;;;;;2.74;90.91;102361.22;5093303;28;20285;-74
2021/12/20 07:18:08;;;;;;;8.03;4.60;;;;;;;2.69;90.90;102368.03;5093314;28;20337;-74
2021/12/20 07:20:35;;;;;;;22.73;5.23;;;;;;;2.64;90.94;102364.47;5093162;28;20572;-74
2021/12/20 07:23:02;;;;;;;21.20;4.67;;;;;;;2.61;91.13;102361.84;5093626;28;20212;-75
2021/12/20 07:25:28;;;;;;;10.43;5.30;;;;;;;2.58;91.17;102375.59;5093144;28;20754;-75
2021/12/20 07:27:55;;;;;;;18.87;5.30;;;;;;;2.53;91.30;102373.78;5093388;28;20620;-74
2021/12/20 07:30:21;;;;;;;6.53;3.90;;;;;;;2.51;91.36;102368.59;5093096;28;20240;-74
2021/12/20 07:32:48;;;;;;;8.57;4.43;;;;;;;2.48;91.45;102368.50;5093771;28;20244;-75
2021/12/20 07:35:16;;;;;;;4.73;4.27;;;;;;;2.46;91.35;102367.63;5091918;28;20215;-74
2021/12/20 07:37:43;;;;;;;23.30;5.57;;;;;;;2.44;91.63;102365.00;5093140;28;20188;-74
2021/12/20 07:40:11;;;;;;;4.73;4.30;;;;;;;2.42;91.64;102371.84;5092032;28;20191;-74
2021/12/20 07:42:37;;;;;;;5.67;4.60;;;;;;;2.39;91.72;102376.97;5093053;28;20204;-74
2021/12/20 07:45:04;;;;;;;14.67;5.17;;;;;;;2.37;91.75;102376.06;5093567;28;20212;-74
2021/12/20 07:47:48;;;;;;;8.20;5.37;;;;;;;2.33;91.85;102371.69;5093368;28;20183;-74
2021/12/20 07:50:17;;;;;;;17.70;5.67;;;;;;;2.34;92.02;102376.00;5093103;28;20179;-74
2021/12/20 07:52:44;;;;;;;10.83;5.73;;;;;;;2.33;92.14;102388.91;5091662;28;20195;-74
2021/12/20 07:55:10;;;;;;;14.57;5.60;;;;;;;2.33;92.00;102389.78;5093164;28;20215;-74
2021/12/20 07:57:37;;;;;;;15.87;6.03;;;;;;;2.26;92.09;102393.06;5092971;28;20240;-74
2021/12/20 08:00:07;;;;;;;13.73;6.93;;;;;;;2.22;92.04;102386.13;5092959;28;20180;-74
2021/12/20 08:02:38;;;;;;;14.37;6.27;;;;;;;2.15;91.94;102392.00;5093494;28;20657;-74
2021/12/20 08:05:05;;;;;;;9.03;5.27;;;;;;;2.05;92.08;102390.94;5092895;28;20630;-74
2021/12/20 08:07:32;;;;;;;17.40;5.43;;;;;;;2.01;92.07;102391.72;5093086;28;20192;-74
2021/12/20 08:09:58;;;;;;;13.10;5.47;;;;;;;2.00;92.33;102389.06;5092886;28;20657;-74
2021/12/20 08:12:25;;;;;;;16.47;5.57;;;;;;;1.98;92.25;102401.09;5092860;28;20526;-74
2021/12/20 08:14:51;;;;;;;16.00;5.23;;;;;;;1.97;92.38;102400.22;5092787;28;20204;-74
2021/12/20 08:17:18;;;;;;;7.70;5.13;;;;;;;1.96;92.21;102402.78;5093104;28;20191;-74
2021/12/20 08:19:44;;;;;;;8.53;4.87;;;;;;;1.93;92.38;102409.66;5093006;28;20713;-74
2021/12/20 08:22:11;;;;;;;12.47;5.80;;;;;;;1.96;92.50;102402.78;5092729;28;20194;-74
2021/12/20 08:24:37;;;;;;;23.47;6.43;;;;;;;1.95;92.63;102408.78;5093014;28;20681;-73
2021/12/20 08:27:04;;;;;;;20.60;5.53;;;;;;;1.99;92.69;102408.00;5093911;28;20206;-73
2021/12/20 08:29:30;;;;;;;8.80;5.37;;;;;;;1.96;92.96;102414.00;5096980;28;20205;-73
2021/12/20 08:32:01;;;;;;;5.53;4.50;;;;;;;1.96;93.22;102416.56;5096821;28;20239;-74
2021/12/20 08:34:30;;;;;;;17.13;5.83;;;;;;;2.04;93.31;102406.41;5096198;28;20212;-74
2021/12/20 08:37:00;;;;;;;14.87;5.00;;;;;;;2.07;93.42;102401.28;5095016;28;20194;-74
2021/12/20 08:39:28;;;;;;;8.37;5.33;;;;;;;2.16;93.51;102417.88;5096422;28;20233;-74
2021/12/20 08:41:55;;;;;;;10.97;5.40;;;;;;;2.17;93.64;102418.75;5096337;28;20187;-74
2021/12/20 08:44:23;;;;;;;11.23;4.67;;;;;;;2.23;93.93;102423.16;5095050;28;20271;-74
2021/12/20 08:46:51;;;;;;;18.13;5.67;;;;;;;2.31;94.02;102419.88;5096452;28;20525;-74
2021/12/20 08:49:17;;;;;;;9.47;5.93;;;;;;;2.43;93.93;102417.56;5095882;28;20555;-74
2021/12/20 08:51:45;;;;;;;20.47;6.10;;;;;;;2.39;94.23;102417.47;5095909;28;20187;-74
2021/12/20 08:54:13;;;;;;;14.27;5.90;;;;;;;2.39;94.25;102428.66;5095805;28;20681;-74
2021/12/20 08:56:40;;;;;;;17.43;6.17;;;;;;;2.52;94.60;102434.09;5096673;28;20188;-74
2021/12/20 08:59:07;;;;;;;13.03;5.23;;;;;;;2.55;94.61;102434.13;5095705;28;20652;-74
2021/12/20 09:01:35;;;;;;;9.37;5.77;;;;;;;2.59;94.69;102438.53;5095976;28;20222;-74
2021/12/20 09:04:04;;;;;;;7.37;5.60;;;;;;;2.69;94.58;102443.03;5095739;28;20692;-74
2021/12/20 09:06:37;;;;;;;7.77;5.67;;;;;;;2.75;94.64;102435.38;5095946;28;20263;-74
2021/12/20 09:09:05;;;;;;;9.90;6.40;;;;;;;2.80;94.50;102436.34;5095871;28;20177;-74
2021/12/20 09:11:31;;;;;;;17.30;7.33;;;;;;;2.89;94.16;102436.50;5095785;28;20173;-74
2021/12/20 09:14:09;;;;;;;12.37;6.60;;;;;;;2.88;93.97;102433.91;5095668;28;20208;-74
2021/12/20 09:16:36;;;;;;;21.73;6.53;;;;;;;2.97;94.07;102436.66;5095482;28;20523;-74
2021/12/20 09:19:03;;;;;;;25.00;6.73;;;;;;;3.00;93.91;102449.63;5095977;28;20188;-73
2021/12/20 09:21:30;;;;;;;23.03;7.87;;;;;;;3.16;93.32;102440.44;5095944;28;20267;-73
2021/12/20 09:23:56;;;;;;;22.73;6.67;;;;;;;3.22;92.94;102440.53;5095435;28;20676;-73
2021/12/20 09:26:23;;;;;;;17.20;6.83;;;;;;;3.34;92.20;102440.72;5095292;28;20271;-73
2021/12/20 09:28:49;;;;;;;31.07;8.03;;;;;;;3.41;91.85;102447.75;5095552;28;20222;-73
2021/12/20 09:31:16;;;;;;;32.37;7.73;;;;;;;3.42;91.41;102444.28;5095456;28;20684;-73
2021/12/20 09:33:43;;;;;;;35.23;7.20;;;;;;;3.40;91.17;102458.06;5095549;28;20531;-73
2021/12/20 09:36:09;;;;;;;17.37;6.57;;;;;;;3.48;91.33;102456.47;5095378;28;20239;-73
2021/12/20 09:38:36;;;;;;;27.53;8.57;;;;;;;3.52;91.30;102458.28;5093846;28;20588;-73
2021/12/20 09:43:38;;;;;;;14.40;6.77;;;;;;;3.73;90.54;102452.56;5094822;28;20662;-74
2021/12/20 09:46:04;;;;;;;25.33;7.57;;;;;;;3.79;90.40;102455.25;5095433;28;20185;-74
2021/12/20 09:48:31;;;;;;;25.13;8.00;;;;;;;3.87;90.10;102453.63;5095062;28;20190;-74
2021/12/20 09:50:57;;;;;;;21.37;6.33;;;;;;;3.93;89.44;102453.72;5095349;28;20180;-74
2021/12/20 09:53:24;;;;;;;24.00;7.30;;;;;;;4.01;89.05;102449.50;5094964;28;20211;-74
2021/12/20 09:55:51;;;;;;;30.93;7.27;;;;;;;4.06;88.99;102453.00;5094545;28;20209;-74
2021/12/20 09:58:21;;;;;;;26.27;6.17;;;;;;;4.09;89.09;102455.66;5095139;28;20185;-74
2021/12/20 10:00:49;;;;;;;20.70;6.67;;;;;;;4.18;88.78;102451.44;5094576;28;20198;-74
2021/12/20 10:03:19;;;;;;;13.60;7.37;;;;;;;4.14;89.05;102447.94;5095003;28;20740;-74
2021/12/20 10:05:46;;;;;;;13.27;6.30;;;;;;;4.24;89.23;102452.41;5094414;28;20209;-74
2021/12/20 10:08:15;;;;;;;16.63;6.60;;;;;;;4.33;88.66;102460.28;5094425;28;20278;-74
2021/12/20 10:10:47;;;;;;;25.47;7.10;;;;;;;4.41;86.63;102452.59;5094430;28;20198;-74
2021/12/20 10:13:28;;;;;;;20.10;7.23;;;;;;;4.43;86.23;102461.28;5094919;28;20174;-73
2021/12/20 10:15:57;;;;;;;13.23;8.00;;;;;;;4.54;86.06;102451.91;5093339;28;20610;-75
2021/12/20 10:18:25;;;;;;;13.67;8.20;;;;;;;4.54;86.13;102453.63;5094265;28;20250;-74
2021/12/20 10:20:54;;;;;;;26.47;8.27;;;;;;;4.56;85.66;102457.09;5094591;28;20213;-74
2021/12/20 10:23:27;;;;;;;13.57;6.93;;;;;;;4.60;85.41;102441.59;5094655;28;20240;-74
2021/12/20 10:25:59;;;;;;;12.17;6.30;;;;;;;4.68;85.27;102445.13;5094599;28;20205;-74
2021/12/20 10:28:34;;;;;;;32.63;7.60;;;;;;;4.63;85.44;102454.59;5094145;28;20227;-74
2021/12/20 10:31:31;;;;;;;19.07;6.13;;;;;;;4.75;85.50;102456.47;5094663;28;20224;-74
2021/12/20 10:34:02;;;;;;;25.53;6.53;;;;;;;4.88;85.06;102452.28;5080811;28;20274;-74
2021/12/20 10:36:31;;;;;;;14.70;6.70;;;;;;;4.94;84.76;102448.00;5093930;28;20185;-74
2021/12/20 10:38:59;;;;;;;15.93;6.63;;;;;;;5.06;84.23;102454.16;5094157;28;20697;-74
2021/12/20 10:41:38;;;;;;;15.13;5.53;;;;;;;5.11;83.94;102445.56;5094373;28;20194;-74
2021/12/20 10:44:21;;;;;;;20.23;5.10;;;;;;;5.28;83.33;102450.03;5093937;28;20596;-74
2021/12/20 10:46:56;;;;;;;19.43;5.80;;;;;;;5.16;82.21;102454.28;5094053;28;20535;-74
2021/12/20 10:49:28;;;;;;;15.83;5.80;;;;;;;5.21;82.29;102460.38;5093661;28;20619;-74
2021/12/20 10:51:55;;;;;;;21.60;6.53;;;;;;;5.31;82.22;102455.28;5094230;28;20205;-74
2021/12/20 10:54:25;;;;;;;13.03;5.80;;;;;;;5.41;81.81;102460.53;5093983;28;20202;-74
2021/12/20 10:57:02;;;;;;;12.20;5.23;;;;;;;5.31;82.09;102463.06;5093905;28;20581;-74
2021/12/20 10:59:32;;;;;;;24.70;6.23;;;;;;;5.38;81.80;102454.47;5093573;28;20228;-74
2021/12/20 11:04:50;;;;;;;12.33;6.13;;;;;;;5.47;80.16;102451.94;5093958;28;20617;-73
2021/12/20 11:10:02;;;;;;;12.77;5.60;;;;;;;5.52;80.33;102453.72;5093669;28;20631;-73
2021/12/20 11:12:32;;;;;;;15.60;6.63;;;;;;;5.58;79.23;102446.81;5093730;28;20174;-73
2021/12/20 11:15:10;;;;;;;15.20;5.87;;;;;;;5.60;78.82;102442.50;5093374;28;20205;-73
2021/12/20 11:17:44;;;;;;;18.23;6.47;;;;;;;5.67;78.53;102446.88;5093710;28;20576;-73
2021/12/20 11:20:20;;;;;;;19.20;6.07;;;;;;;5.64;78.15;102437.31;5093806;28;20234;-74
2021/12/20 11:22:47;;;;;;;19.17;5.93;;;;;;;5.71;78.14;102438.22;5092131;28;20182;-74
2021/12/20 11:25:15;;;;;;;16.93;6.20;;;;;;;5.65;77.99;102439.09;5093193;28;20218;-73
2021/12/20 11:27:51;;;;;;;8.03;5.80;;;;;;;5.68;77.13;102433.91;5093215;28;20194;-73
2021/12/20 11:30:20;;;;;;;11.60;6.17;;;;;;;5.61;77.98;102426.91;5093275;28;20169;-73
2021/12/20 11:32:48;;;;;;;13.43;5.53;;;;;;;5.86;77.05;102427.94;5093203;28;20194;-73
2021/12/20 11:35:17;;;;;;;16.33;6.30;;;;;;;5.76;77.13;102427.00;5093176;28;20198;-73
2021/12/20 11:37:44;;;;;;;22.30;6.33;;;;;;;5.89;76.19;102437.50;5093676;28;20194;-73
2021/12/20 11:40:13;;;;;;;19.43;6.33;;;;;;;5.87;75.56;102428.81;5093517;28;20736;-73
2021/12/20 11:42:40;;;;;;;14.53;5.47;;;;;;;5.84;75.05;102432.25;5093102;28;20186;-73
2021/12/20 11:45:10;;;;;;;13.40;5.43;;;;;;;5.74;74.66;102433.94;5093128;28;20583;-74
2021/12/20 11:47:47;;;;;;;10.70;5.13;;;;;;;5.71;73.50;102433.03;5093039;28;20680;-74
2021/12/20 11:50:17;;;;;;;10.00;4.83;;;;;;;5.73;73.11;102432.19;5093416;28;20631;-74
2021/12/20 11:52:46;;;;;;;10.77;4.63;;;;;;;5.80;73.26;102433.97;5093375;28;20227;-73